Hlavní strana
METAR-TAF:

METAR-TAF

Letiště :

Letecká základna

Niederstetten, Německo

zeměpisná šířka: 49-24N, zeměpisná délka: 009-58E, výška: 468 m

Aktuální stav počasí

Zpráva byla vytvořena před 1 hodinou a 6 minutami, v 20:20 UTC
Západní vítr 9 kt
Teplota 1°C
Vlhkost vzduchu 93%
Tlak 1021 hPa
Viditelnost: 7000 m
Oblačno až skoro zataženo ve výšce 200 ft

METAR: ETHN 112020Z 28009KT 7000 BKN002 01/M00 Q1021 AMB

Čas: 22:26 (21:26 UTC)

Předpověď počasí

Zpráva byla vytvořena před 3 hodinami a 15 minutami, v 18:11 UTC
Předpověď platná od 11 v 18 UTC do 12 v 03 UTC
Západní vítr 12 kt
Viditelnost 10 km a více
Oblačno až skoro zataženo ve výšce 300 ft
Změna
od 11 v 18 UTC do 11 v 19 UTC
Západní vítr 7 kt
Viditelnost: 1500 m
Zataženo ve výšce 100 ft
slabé sněžení

TAF: ETHN 111811Z 1118/1203 27012KT 9999 NSW BKN003 BECMG 1118/1119 27007KT 1500 -SN OVC001

Stav a předpovědi počasí z více než 4 000 letišť (zprávy METAR a TAF).

Červené a žluté tečky na mapě představují dostupné meteorologické stanice.

Když kurzor umístíte na tečku, zobrazí se název stanice.

Pak kliknutím zobrazíte stav a předpověď počasí.

Chcete-li změnit mapu, kliknutím na zelené tlačítko se znaménkem +mapu přiblížíte, kliknutím na zelené tlačítko se znaménkem – mapu oddálíte a kliknutím na zelené šipky přejdete na sousední mapy.


METAR-TAF: